Time;durP1;ratioP1;P1;durP2;ratioP2;P2;SDS_P1;SDS_P2;PMS_P1;PMS_P2;Temp;Humidity;BMP_temperature;BMP_pressure;BME280_temperature;BME280_humidity;BME280_pressure;Samples;Min_cycle;Max_cycle;Signal;HPM_P1;HPM_P2
2023/04/17 00:03:10;;;;;;;2.47;1.70;;;;;;;;;;10073864;28;20523;-64
2023/04/17 00:08:05;;;;;;;2.10;1.90;;;;;;;;;;10085652;28;20076;-64
2023/04/17 00:12:59;;;;;;;2.25;1.80;;;;;;;;;;10074732;28;20041;-65
2023/04/17 00:17:54;;;;;;;1.60;1.50;;;;;;;;;;10087180;28;20111;-64
2023/04/17 00:22:48;;;;;;;1.95;1.77;;;;;;;;;;10096811;28;20148;-65
2023/04/17 00:27:42;;;;;;;1.80;1.70;;;;;;;;;;10102331;28;20052;-65
2023/04/17 00:32:36;;;;;;;4.95;2.03;;;;;;;;;;10073670;28;20420;-65
2023/04/17 00:37:30;;;;;;;2.05;1.90;;;;;;;;;;10066766;28;20055;-64
2023/04/17 00:42:24;;;;;;;2.13;1.85;;;;;;;;;;10070818;28;20054;-64
2023/04/17 00:47:18;;;;;;;3.35;1.92;;;;;;;;;;10054854;28;20055;-64
2023/04/17 00:52:11;;;;;;;2.10;1.83;;;;;;;;;;10056187;28;20037;-64
2023/04/17 00:57:05;;;;;;;2.47;1.77;;;;;;;;;;10094860;28;20498;-64
2023/04/17 01:01:59;;;;;;;2.90;2.25;;;;;;;;;;10074096;28;20049;-64
2023/04/17 01:06:54;;;;;;;3.17;2.17;;;;;;;;;;10068407;28;20056;-64
2023/04/17 01:11:49;;;;;;;2.47;2.10;;;;;;;;;;10078388;28;20056;-64
2023/04/17 01:16:44;;;;;;;1.90;1.80;;;;;;;;;;10094494;28;20464;-64
2023/04/17 01:21:38;;;;;;;2.15;1.90;;;;;;;;;;10094335;28;20507;-64
2023/04/17 01:26:32;;;;;;;1.77;1.67;;;;;;;;;;10107451;28;20519;-64
2023/04/17 01:31:27;;;;;;;3.35;2.28;;;;;;;;;;10088118;28;20400;-63
2023/04/17 01:36:20;;;;;;;2.00;1.90;;;;;;;;;;10065515;28;20056;-63
2023/04/17 01:41:14;;;;;;;2.00;1.90;;;;;;;;;;10079327;28;20049;-63
2023/04/17 01:46:07;;;;;;;2.40;2.15;;;;;;;;;;10092111;28;20049;-63
2023/04/17 01:51:00;;;;;;;2.40;2.13;;;;;;;;;;10071916;28;20120;-63
2023/04/17 01:55:54;;;;;;;2.47;2.10;;;;;;;;;;10053225;28;20045;-63
2023/04/17 02:00:50;;;;;;;2.53;1.70;;;;;;;;;;10055862;28;20081;-63
2023/04/17 02:05:46;;;;;;;2.10;1.95;;;;;;;;;;10068649;28;20049;-63
2023/04/17 02:10:40;;;;;;;1.92;1.80;;;;;;;;;;10074075;28;20570;-63
2023/04/17 02:15:37;;;;;;;4.30;2.65;;;;;;;;;;10070620;28;20067;-63
2023/04/17 02:20:35;;;;;;;2.65;2.35;;;;;;;;;;10057974;28;20079;-63
2023/04/17 02:25:28;;;;;;;1.92;1.73;;;;;;;;;;10048379;28;20488;-63
2023/04/17 02:30:26;;;;;;;2.28;2.08;;;;;;;;;;10077921;28;20049;-63
2023/04/17 02:35:22;;;;;;;2.28;1.70;;;;;;;;;;10072865;28;20096;-63
2023/04/17 02:40:15;;;;;;;2.10;2.00;;;;;;;;;;10061620;28;20056;-62
2023/04/17 02:45:10;;;;;;;3.00;2.00;;;;;;;;;;10054184;28;20099;-65
2023/04/17 02:50:04;;;;;;;2.97;2.25;;;;;;;;;;10088508;28;20056;-65
2023/04/17 02:55:06;;;;;;;5.63;2.17;;;;;;;;;;10093117;28;20100;-65
2023/04/17 03:00:00;;;;;;;2.40;2.20;;;;;;;;;;10087160;28;20139;-65
2023/04/17 03:04:54;;;;;;;3.20;1.90;;;;;;;;;;10106141;28;20132;-63
2023/04/17 03:09:49;;;;;;;2.28;2.08;;;;;;;;;;10102618;28;20048;-65
2023/04/17 03:14:42;;;;;;;2.95;2.60;;;;;;;;;;10101011;28;20049;-63
2023/04/17 03:19:35;;;;;;;2.03;1.92;;;;;;;;;;10125596;28;20102;-62
2023/04/17 03:24:30;;;;;;;3.17;2.00;;;;;;;;;;10118617;28;20067;-65
2023/04/17 03:29:25;;;;;;;3.40;2.53;;;;;;;;;;10126805;28;20052;-65
2023/04/17 03:34:20;;;;;;;3.03;2.28;;;;;;;;;;10112607;28;20087;-65
2023/04/17 03:39:15;;;;;;;2.75;2.55;;;;;;;;;;10093407;28;20084;-65
2023/04/17 03:44:07;;;;;;;2.88;2.63;;;;;;;;;;10127942;28;20135;-64
2023/04/17 03:49:01;;;;;;;2.55;2.30;;;;;;;;;;10103416;28;20063;-64
2023/04/17 03:53:55;;;;;;;2.53;2.33;;;;;;;;;;10079452;28;20041;-64
2023/04/17 03:58:49;;;;;;;2.60;2.40;;;;;;;;;;10086200;28;20045;-64
2023/04/17 04:03:44;;;;;;;4.75;3.05;;;;;;;;;;10082494;28;20057;-65
2023/04/17 04:08:39;;;;;;;3.17;2.88;;;;;;;;;;10066475;28;20049;-63
2023/04/17 04:13:33;;;;;;;3.28;2.90;;;;;;;;;;10089570;28;20414;-63
2023/04/17 04:18:28;;;;;;;3.33;2.17;;;;;;;;;;10097633;28;20133;-64
2023/04/17 04:23:23;;;;;;;3.05;2.75;;;;;;;;;;10076788;28;20052;-65
2023/04/17 04:28:18;;;;;;;3.55;2.78;;;;;;;;;;10071974;28;20053;-64
2023/04/17 04:33:13;;;;;;;3.33;2.85;;;;;;;;;;10062229;28;20053;-65
2023/04/17 04:38:12;;;;;;;4.55;2.50;;;;;;;;;;10056431;28;20105;-65
2023/04/17 04:43:08;;;;;;;5.10;2.42;;;;;;;;;;10096321;28;20049;-65
2023/04/17 04:48:07;;;;;;;3.03;2.80;;;;;;;;;;10099483;28;20474;-65
2023/04/17 04:53:00;;;;;;;2.47;2.28;;;;;;;;;;10101817;28;20087;-65
2023/04/17 04:58:16;;;;;;;2.72;2.40;;;;;;;;;;10131144;28;20071;-65
2023/04/17 05:03:11;;;;;;;4.28;2.65;;;;;;;;;;10108933;28;20045;-65
2023/04/17 05:08:06;;;;;;;3.58;2.80;;;;;;;;;;10109713;28;20139;-64
2023/04/17 05:13:00;;;;;;;3.10;2.22;;;;;;;;;;10140908;28;20057;-62
2023/04/17 05:17:54;;;;;;;3.00;2.65;;;;;;;;;;10156598;28;20057;-65
2023/04/17 05:22:49;;;;;;;4.32;2.80;;;;;;;;;;10134702;28;20107;-64
2023/04/17 05:27:43;;;;;;;4.22;2.55;;;;;;;;;;10153504;28;20043;-64
2023/04/17 05:32:37;;;;;;;7.97;3.13;;;;;;;;;;10131062;28;20051;-64
2023/04/17 05:37:43;;;;;;;2.75;2.53;;;;;;;;;;10128963;28;20127;-62
2023/04/17 05:42:38;;;;;;;3.78;2.85;;;;;;;;;;10127751;28;20446;-63
2023/04/17 05:47:33;;;;;;;6.45;4.32;;;;;;;;;;10127124;28;20057;-62
2023/04/17 05:52:27;;;;;;;11.18;3.78;;;;;;;;;;10111161;28;20069;-63
2023/04/17 05:57:22;;;;;;;8.82;3.88;;;;;;;;;;10105694;28;20060;-62
2023/04/17 06:02:16;;;;;;;10.15;4.50;;;;;;;;;;10102060;28;20578;-64
2023/04/17 06:07:10;;;;;;;5.40;3.63;;;;;;;;;;10094562;28;20041;-64
2023/04/17 06:12:13;;;;;;;7.10;3.30;;;;;;;;;;10117628;28;20078;-64
2023/04/17 06:17:08;;;;;;;9.05;2.67;;;;;;;;;;10132418;28;20072;-65
2023/04/17 06:22:02;;;;;;;5.80;3.70;;;;;;;;;;10110665;28;20422;-64
2023/04/17 06:26:55;;;;;;;8.52;3.13;;;;;;;;;;10125025;28;20044;-64
2023/04/17 06:31:49;;;;;;;6.13;2.78;;;;;;;;;;10109040;28;20056;-64
2023/04/17 06:36:46;;;;;;;7.82;3.58;;;;;;;;;;10096968;28;20118;-64
2023/04/17 06:41:42;;;;;;;3.55;2.80;;;;;;;;;;10102490;28;20178;-64
2023/04/17 06:46:37;;;;;;;9.95;5.00;;;;;;;;;;10081476;28;20136;-64
2023/04/17 06:51:30;;;;;;;20.52;7.20;;;;;;;;;;10057613;28;20057;-64
2023/04/17 06:56:23;;;;;;;8.20;4.85;;;;;;;;;;10087989;28;20084;-64
2023/04/17 07:01:18;;;;;;;6.35;4.68;;;;;;;;;;10070933;28;20044;-64
2023/04/17 07:06:13;;;;;;;10.27;4.30;;;;;;;;;;10073138;28;20479;-64
2023/04/17 07:11:07;;;;;;;5.55;3.70;;;;;;;;;;10092137;28;20503;-64
2023/04/17 07:16:02;;;;;;;4.20;3.70;;;;;;;;;;10097042;28;20550;-64
2023/04/17 07:20:56;;;;;;;6.53;4.18;;;;;;;;;;10100648;28;20076;-64
2023/04/17 07:25:49;;;;;;;4.43;3.55;;;;;;;;;;10096335;28;20044;-65
2023/04/17 07:30:43;;;;;;;4.97;3.47;;;;;;;;;;10094127;28;20099;-64
2023/04/17 07:35:36;;;;;;;8.73;4.05;;;;;;;;;;10093462;28;20072;-64
2023/04/17 07:40:29;;;;;;;6.68;4.50;;;;;;;;;;10106549;28;20057;-65
2023/04/17 07:45:23;;;;;;;6.60;3.78;;;;;;;;;;10089498;28;20540;-64
2023/04/17 07:50:16;;;;;;;5.97;3.42;;;;;;;;;;10134321;28;20518;-64
2023/04/17 07:55:10;;;;;;;3.90;3.22;;;;;;;;;;10124327;28;20044;-65
2023/04/17 08:00:06;;;;;;;5.43;3.85;;;;;;;;;;10116453;28;20056;-64
2023/04/17 08:05:06;;;;;;;9.77;4.50;;;;;;;;;;10110198;28;20542;-64
2023/04/17 08:10:01;;;;;;;9.80;4.68;;;;;;;;;;10118629;28;20412;-64
2023/04/17 08:14:53;;;;;;;9.20;4.70;;;;;;;;;;10124241;28;21295;-64
2023/04/17 08:19:52;;;;;;;6.95;4.90;;;;;;;;;;10127164;28;20045;-64
2023/04/17 08:24:45;;;;;;;5.23;4.20;;;;;;;;;;10116532;28;20052;-64
2023/04/17 08:29:38;;;;;;;7.63;4.22;;;;;;;;;;10114486;28;20048;-64
2023/04/17 08:34:32;;;;;;;6.20;4.65;;;;;;;;;;10120824;28;20045;-64
2023/04/17 08:39:26;;;;;;;6.15;4.68;;;;;;;;;;10138212;28;20063;-64
2023/04/17 08:44:22;;;;;;;14.60;9.00;;;;;;;;;;10144409;28;20063;-64
2023/04/17 08:49:16;;;;;;;4.90;4.45;;;;;;;;;;10090934;28;20095;-64
2023/04/17 08:54:09;;;;;;;5.63;4.05;;;;;;;;;;10084799;28;20045;-64
2023/04/17 08:59:05;;;;;;;4.63;4.22;;;;;;;;;;10089810;28;20115;-63
2023/04/17 09:04:00;;;;;;;6.40;4.75;;;;;;;;;;10090749;28;20061;-64
2023/04/17 09:09:01;;;;;;;6.50;5.25;;;;;;;;;;10092722;28;20136;-64
2023/04/17 09:13:54;;;;;;;5.13;4.63;;;;;;;;;;10072690;28;20115;-64
2023/04/17 09:18:48;;;;;;;6.35;5.75;;;;;;;;;;10082311;28;20051;-63
2023/04/17 09:23:55;;;;;;;6.43;5.45;;;;;;;;;;10103659;28;20381;-63
2023/04/17 09:29:02;;;;;;;7.85;5.57;;;;;;;;;;10093848;28;20077;-63
2023/04/17 09:34:01;;;;;;;8.05;6.18;;;;;;;;;;10076474;28;20103;-63
2023/04/17 09:38:54;;;;;;;8.25;7.45;;;;;;;;;;10068532;28;20049;-63
2023/04/17 09:43:52;;;;;;;7.90;7.10;;;;;;;;;;10086205;28;20077;-63
2023/04/17 09:48:46;;;;;;;6.80;2.85;;;;;;;;;;10113021;28;20180;-63
2023/04/17 09:53:40;;;;;;;2.10;1.90;;;;;;;;;;10134468;28;20074;-63
2023/04/17 09:58:34;;;;;;;2.75;2.55;;;;;;;;;;10156085;28;20052;-62
2023/04/17 10:03:27;;;;;;;3.38;2.53;;;;;;;;;;10121119;28;20388;-64
2023/04/17 10:08:20;;;;;;;2.90;2.70;;;;;;;;;;10114215;28;20036;-63
2023/04/17 10:13:13;;;;;;;2.75;2.33;;;;;;;;;;10152198;28;20043;-63
2023/04/17 10:18:23;;;;;;;1.70;1.60;;;;;;;;;;10114927;28;20051;-63
2023/04/17 10:23:50;;;;;;;4.80;1.77;;;;;;;;;;10117926;28;20557;-63
2023/04/17 10:28:48;;;;;;;2.67;1.80;;;;;;;;;;9979035;28;20097;-62
2023/04/17 10:33:48;;;;;;;1.70;1.60;;;;;;;;;;10140099;28;20048;-64
2023/04/17 10:38:43;;;;;;;4.28;2.38;;;;;;;;;;10129360;28;20128;-61
2023/04/17 10:43:41;;;;;;;1.45;1.35;;;;;;;;;;10136982;28;20091;-64
2023/04/17 10:48:40;;;;;;;1.80;1.70;;;;;;;;;;10105215;28;20492;-63
2023/04/17 10:53:36;;;;;;;1.53;1.40;;;;;;;;;;10072596;28;20056;-63
2023/04/17 10:58:29;;;;;;;1.88;1.77;;;;;;;;;;10103105;28;20084;-64
2023/04/17 11:03:25;;;;;;;2.15;1.95;;;;;;;;;;10106940;28;20061;-63
2023/04/17 11:08:19;;;;;;;1.50;1.40;;;;;;;;;;10111886;28;20488;-63
2023/04/17 11:13:13;;;;;;;1.40;1.30;;;;;;;;;;10092944;28;20041;-63
2023/04/17 11:18:06;;;;;;;1.90;1.70;;;;;;;;;;10115233;28;20045;-63
2023/04/17 11:23:04;;;;;;;1.75;1.65;;;;;;;;;;10085397;28;20057;-63
2023/04/17 11:28:01;;;;;;;1.65;1.55;;;;;;;;;;10115086;28;20084;-63
2023/04/17 11:32:59;;;;;;;1.80;1.70;;;;;;;;;;10110282;28;20504;-63
2023/04/17 11:38:19;;;;;;;3.83;1.60;;;;;;;;;;10105460;28;20048;-63
2023/04/17 11:43:14;;;;;;;1.67;1.58;;;;;;;;;;10088271;28;20049;-63
2023/04/17 11:48:10;;;;;;;2.13;1.65;;;;;;;;;;10132281;28;20056;-64
2023/04/17 11:53:04;;;;;;;2.95;2.50;;;;;;;;;;10140671;28;20052;-64
2023/04/17 11:58:16;;;;;;;2.60;1.70;;;;;;;;;;10141949;28;20057;-63
2023/04/17 12:03:42;;;;;;;2.78;1.83;;;;;;;;;;10139144;28;20053;-63
2023/04/17 12:08:50;;;;;;;1.90;1.80;;;;;;;;;;10087036;28;20049;-64
2023/04/17 12:13:43;;;;;;;1.60;1.50;;;;;;;;;;10113426;28;20110;-64
2023/04/17 12:18:38;;;;;;;3.05;2.22;;;;;;;;;;10138661;28;20496;-64
2023/04/17 12:23:31;;;;;;;2.03;1.83;;;;;;;;;;10139565;28;20044;-64
2023/04/17 12:28:25;;;;;;;3.05;1.58;;;;;;;;;;10111833;28;20052;-64
2023/04/17 12:33:18;;;;;;;3.33;1.70;;;;;;;;;;10114982;28;20045;-64
2023/04/17 12:38:12;;;;;;;2.30;2.10;;;;;;;;;;10141376;28;20052;-65
2023/04/17 12:43:07;;;;;;;3.38;1.80;;;;;;;;;;10131066;28;20368;-64
2023/04/17 12:48:01;;;;;;;2.20;2.00;;;;;;;;;;10142176;28;20058;-64
2023/04/17 12:52:55;;;;;;;4.28;1.70;;;;;;;;;;10120545;28;20063;-65
2023/04/17 12:57:49;;;;;;;1.70;1.58;;;;;;;;;;10138046;28;20049;-64
2023/04/17 13:02:44;;;;;;;2.47;2.13;;;;;;;;;;10134500;28;20475;-64
2023/04/17 13:07:38;;;;;;;2.40;1.70;;;;;;;;;;10129864;28;20059;-63
2023/04/17 13:12:33;;;;;;;2.90;2.55;;;;;;;;;;10133867;28;20056;-64
2023/04/17 13:17:26;;;;;;;3.67;2.13;;;;;;;;;;10127099;28;20053;-63
2023/04/17 13:22:21;;;;;;;3.78;1.60;;;;;;;;;;10122898;28;20053;-64
2023/04/17 13:27:15;;;;;;;2.50;1.90;;;;;;;;;;10130705;28;20105;-64
2023/04/17 13:32:09;;;;;;;2.40;1.77;;;;;;;;;;10134059;28;20549;-64
2023/04/17 13:37:03;;;;;;;3.25;2.20;;;;;;;;;;10139754;28;20131;-63
2023/04/17 13:41:57;;;;;;;6.10;1.95;;;;;;;;;;10129729;28;20132;-63
2023/04/17 13:46:51;;;;;;;1.92;1.73;;;;;;;;;;10116521;28;20562;-64
2023/04/17 13:51:45;;;;;;;1.60;1.50;;;;;;;;;;10091606;28;20084;-63
2023/04/17 13:56:38;;;;;;;3.80;2.40;;;;;;;;;;10075996;28;20071;-64
2023/04/17 14:01:32;;;;;;;2.13;1.92;;;;;;;;;;10097612;28;20049;-64
2023/04/17 14:06:31;;;;;;;2.30;1.85;;;;;;;;;;10091013;28;20056;-63
2023/04/17 14:11:24;;;;;;;1.90;1.75;;;;;;;;;;10094790;28;20507;-63
2023/04/17 14:16:17;;;;;;;4.03;2.60;;;;;;;;;;10085163;28;20466;-64
2023/04/17 14:21:12;;;;;;;1.75;1.63;;;;;;;;;;10072000;28;20061;-62
2023/04/17 14:26:06;;;;;;;1.83;1.73;;;;;;;;;;10090090;28;20056;-63
2023/04/17 14:31:00;;;;;;;1.95;1.80;;;;;;;;;;10095506;28;20080;-62
2023/04/17 14:35:55;;;;;;;3.53;1.60;;;;;;;;;;10089333;28;20037;-64
2023/04/17 14:40:49;;;;;;;2.60;2.33;;;;;;;;;;10097124;28;20060;-63
2023/04/17 14:45:42;;;;;;;1.85;1.75;;;;;;;;;;10096240;28;20110;-63
2023/04/17 14:50:37;;;;;;;2.15;1.75;;;;;;;;;;10113948;28;20419;-64
2023/04/17 14:55:33;;;;;;;3.45;2.47;;;;;;;;;;10110905;28;20466;-63
2023/04/17 15:00:30;;;;;;;3.47;2.17;;;;;;;;;;10134742;28;20102;-64
2023/04/17 15:05:24;;;;;;;3.25;2.30;;;;;;;;;;10110544;28;20128;-64
2023/04/17 15:10:17;;;;;;;2.38;2.17;;;;;;;;;;10124610;28;20096;-64
2023/04/17 15:15:11;;;;;;;3.17;2.88;;;;;;;;;;10122129;28;20059;-63
2023/04/17 15:20:08;;;;;;;2.17;1.73;;;;;;;;;;10129014;28;20545;-63
2023/04/17 15:25:02;;;;;;;2.25;2.05;;;;;;;;;;10136533;28;20040;-64
2023/04/17 15:29:55;;;;;;;2.35;2.15;;;;;;;;;;10119312;28;20041;-64
2023/04/17 15:34:49;;;;;;;1.90;1.80;;;;;;;;;;10118419;28;20087;-64
2023/04/17 15:39:42;;;;;;;1.67;1.58;;;;;;;;;;10119759;28;20045;-63
2023/04/17 15:44:36;;;;;;;1.70;1.60;;;;;;;;;;10130942;28;20052;-64
2023/04/17 15:49:29;;;;;;;3.63;1.85;;;;;;;;;;10100167;28;20151;-64
2023/04/17 15:54:22;;;;;;;2.03;1.77;;;;;;;;;;10096115;28;20155;-65
2023/04/17 15:59:17;;;;;;;2.13;2.00;;;;;;;;;;10105992;28;20107;-65
2023/04/17 16:04:11;;;;;;;2.67;1.92;;;;;;;;;;10086256;28;20045;-64
2023/04/17 16:09:09;;;;;;;3.25;2.58;;;;;;;;;;10085965;28;20045;-65
2023/04/17 16:14:03;;;;;;;15.77;9.20;;;;;;;;;;10087884;28;20132;-65
2023/04/17 16:18:56;;;;;;;9.70;7.20;;;;;;;;;;10083666;28;20059;-64
2023/04/17 16:23:50;;;;;;;4.40;3.80;;;;;;;;;;10076516;28;20053;-65
2023/04/17 16:28:45;;;;;;;5.15;4.63;;;;;;;;;;10089983;28;20049;-65
2023/04/17 16:33:39;;;;;;;3.08;2.78;;;;;;;;;;10085508;28;20464;-64
2023/04/17 16:38:34;;;;;;;2.90;2.60;;;;;;;;;;10089524;28;20424;-64
2023/04/17 16:43:29;;;;;;;2.85;2.13;;;;;;;;;;10095105;28;20060;-64
2023/04/17 16:48:22;;;;;;;2.30;2.10;;;;;;;;;;10110668;28;20053;-64
2023/04/17 16:53:18;;;;;;;3.33;2.97;;;;;;;;;;10112724;28;20052;-64
2023/04/17 16:58:11;;;;;;;3.15;2.30;;;;;;;;;;10130352;28;20053;-65
2023/04/17 17:03:06;;;;;;;2.55;2.35;;;;;;;;;;10122125;28;20102;-65
2023/04/17 17:07:59;;;;;;;3.30;3.00;;;;;;;;;;10119392;28;20059;-63
2023/04/17 17:12:52;;;;;;;7.53;5.72;;;;;;;;;;10133029;28;20045;-63
2023/04/17 17:17:46;;;;;;;8.10;7.35;;;;;;;;;;10130988;28;20049;-65
2023/04/17 17:22:40;;;;;;;3.70;3.40;;;;;;;;;;10136638;28;20079;-63
2023/04/17 17:27:33;;;;;;;2.92;2.60;;;;;;;;;;10137468;28;20060;-63
2023/04/17 17:32:28;;;;;;;2.88;2.58;;;;;;;;;;10129806;28;20048;-66
2023/04/17 17:37:21;;;;;;;8.45;5.47;;;;;;;;;;10131508;28;20119;-63
2023/04/17 17:42:15;;;;;;;18.65;16.67;;;;;;;;;;10120244;28;20040;-63
2023/04/17 17:47:09;;;;;;;8.25;5.82;;;;;;;;;;10127849;28;20061;-64
2023/04/17 17:52:02;;;;;;;7.70;4.38;;;;;;;;;;10136198;28;20373;-65
2023/04/17 17:56:55;;;;;;;12.43;7.30;;;;;;;;;;10128001;28;20056;-63
2023/04/17 18:01:49;;;;;;;6.22;5.50;;;;;;;;;;10135066;28;20036;-65
2023/04/17 18:06:43;;;;;;;7.25;5.15;;;;;;;;;;10126335;28;20099;-65
2023/04/17 18:11:37;;;;;;;3.97;3.58;;;;;;;;;;10127776;28;20048;-64
2023/04/17 18:16:32;;;;;;;3.40;3.10;;;;;;;;;;10130798;28;20102;-63
2023/04/17 18:21:26;;;;;;;8.73;7.07;;;;;;;;;;10131074;28;20087;-64
2023/04/17 18:26:19;;;;;;;4.55;3.30;;;;;;;;;;10118788;28;20116;-65
2023/04/17 18:31:12;;;;;;;6.95;5.53;;;;;;;;;;10134505;28;20048;-63
2023/04/17 18:36:07;;;;;;;7.60;5.47;;;;;;;;;;10126097;28;20053;-64
2023/04/17 18:41:00;;;;;;;6.75;4.28;;;;;;;;;;10124262;28;20127;-63
2023/04/17 18:45:54;;;;;;;7.57;5.07;;;;;;;;;;10131105;28;20056;-64
2023/04/17 18:50:48;;;;;;;6.15;5.32;;;;;;;;;;10122476;28;20069;-65
2023/04/17 18:55:42;;;;;;;9.18;5.07;;;;;;;;;;10124289;28;20056;-65
2023/04/17 19:00:36;;;;;;;7.55;5.68;;;;;;;;;;10112086;28;20401;-64
2023/04/17 19:05:29;;;;;;;6.65;5.95;;;;;;;;;;10128184;28;20132;-64
2023/04/17 19:10:23;;;;;;;9.45;6.95;;;;;;;;;;10134641;28;20040;-65
2023/04/17 19:15:17;;;;;;;10.77;7.38;;;;;;;;;;10115830;28;20044;-67
2023/04/17 19:20:11;;;;;;;9.77;5.90;;;;;;;;;;10134125;28;20491;-67
2023/04/17 19:25:06;;;;;;;7.15;6.43;;;;;;;;;;10144092;28;20049;-65
2023/04/17 19:30:00;;;;;;;8.32;7.53;;;;;;;;;;10140281;28;20447;-64
2023/04/17 19:34:54;;;;;;;8.07;7.00;;;;;;;;;;10136945;28;20123;-63
2023/04/17 19:39:48;;;;;;;7.57;6.82;;;;;;;;;;10143299;28;20045;-64
2023/04/17 19:44:48;;;;;;;9.80;7.13;;;;;;;;;;10135498;28;20415;-63
2023/04/17 19:49:42;;;;;;;9.10;7.82;;;;;;;;;;10132744;28;20084;-63
2023/04/17 19:54:35;;;;;;;8.43;7.30;;;;;;;;;;10143067;28;20052;-64
2023/04/17 19:59:29;;;;;;;14.65;9.90;;;;;;;;;;10139864;28;20533;-66
2023/04/17 20:04:21;;;;;;;11.77;7.93;;;;;;;;;;10146979;28;20055;-64
2023/04/17 20:09:16;;;;;;;9.23;7.82;;;;;;;;;;10145548;28;20539;-67
2023/04/17 20:14:13;;;;;;;8.25;7.45;;;;;;;;;;10145908;28;20045;-64
2023/04/17 20:19:07;;;;;;;10.80;7.88;;;;;;;;;;10153792;28;20051;-63
2023/04/17 20:24:01;;;;;;;9.05;8.02;;;;;;;;;;10154557;28;20037;-66
2023/04/17 20:28:54;;;;;;;9.88;8.32;;;;;;;;;;10147316;28;20052;-66
2023/04/17 20:33:48;;;;;;;9.88;8.85;;;;;;;;;;10140457;28;20056;-64
2023/04/17 20:38:42;;;;;;;35.60;21.90;;;;;;;;;;10149123;28;20053;-65
2023/04/17 20:43:36;;;;;;;16.70;13.65;;;;;;;;;;10148055;28;20053;-68
2023/04/17 20:48:29;;;;;;;12.13;9.35;;;;;;;;;;10151379;28;20068;-66
2023/04/17 20:53:24;;;;;;;16.55;11.52;;;;;;;;;;10147848;28;20065;-65
2023/04/17 20:58:19;;;;;;;15.05;13.40;;;;;;;;;;10152773;28;20536;-65
2023/04/17 21:03:12;;;;;;;17.00;12.55;;;;;;;;;;10166874;28;20455;-64
2023/04/17 21:08:06;;;;;;;10.73;7.95;;;;;;;;;;10142557;28;20044;-63
2023/04/17 21:13:01;;;;;;;9.65;8.65;;;;;;;;;;10156901;28;20037;-64
2023/04/17 21:17:55;;;;;;;14.13;8.85;;;;;;;;;;10162793;28;20056;-65
2023/04/17 21:22:49;;;;;;;9.93;8.95;;;;;;;;;;10164455;28;20052;-64
2023/04/17 21:27:43;;;;;;;10.38;9.30;;;;;;;;;;10164598;28;20048;-63
2023/04/17 21:32:38;;;;;;;10.85;9.85;;;;;;;;;;10149573;28;20084;-64
2023/04/17 21:37:31;;;;;;;15.18;13.00;;;;;;;;;;10159471;28;20036;-63
2023/04/17 21:42:25;;;;;;;13.43;9.30;;;;;;;;;;10122160;28;20119;-63
2023/04/17 21:47:19;;;;;;;13.88;11.27;;;;;;;;;;10114303;28;20057;-63
2023/04/17 21:52:11;;;;;;;11.07;9.98;;;;;;;;;;10124423;28;20049;-64
2023/04/17 21:57:05;;;;;;;14.43;11.45;;;;;;;;;;10131853;28;20063;-64
2023/04/17 22:02:00;;;;;;;14.93;11.75;;;;;;;;;;10135342;28;20036;-63
2023/04/17 22:06:57;;;;;;;11.85;10.55;;;;;;;;;;10140000;28;20056;-64
2023/04/17 22:11:50;;;;;;;13.18;10.80;;;;;;;;;;10136958;28;20056;-63
2023/04/17 22:16:44;;;;;;;10.10;9.15;;;;;;;;;;10130171;28;20058;-63
2023/04/17 22:21:56;;;;;;;12.75;8.57;;;;;;;;;;10146256;28;20055;-63
2023/04/17 22:43:38;;;;;;;12.32;11.13;;;;;;;;;;10127145;28;19921;-63
2023/04/17 23:05:59;;;;;;;8.68;7.78;;;;;;;;;;10129276;28;20075;-63
2023/04/17 23:11:11;;;;;;;12.30;10.15;;;;;;;;;;10119772;28;20514;-64
2023/04/17 23:16:06;;;;;;;9.02;8.10;;;;;;;;;;10142706;28;20041;-63
2023/04/17 23:21:00;;;;;;;8.75;7.85;;;;;;;;;;10111424;28;20125;-64
2023/04/17 23:25:54;;;;;;;10.73;8.52;;;;;;;;;;10130516;28;20459;-63
2023/04/17 23:30:48;;;;;;;7.97;7.18;;;;;;;;;;10131675;28;20464;-63
2023/04/17 23:35:41;;;;;;;10.73;8.43;;;;;;;;;;10143204;28;20048;-64
2023/04/17 23:40:35;;;;;;;8.98;6.95;;;;;;;;;;10133105;28;20045;-63
2023/04/17 23:45:28;;;;;;;10.35;8.55;;;;;;;;;;10128788;28;20051;-63
2023/04/17 23:50:21;;;;;;;7.72;6.93;;;;;;;;;;10132041;28;20103;-63
2023/04/17 23:55:14;;;;;;;7.13;6.40;;;;;;;;;;10130492;28;20040;-63
